Airport View

Enter AWOS ICAO identifier for current METAR.

ex. KFNL

K2V6 202304Z AUTO 03006KT 10SM CLR 13/00 A3000 RMK AO2

20 Oct 2020 23:35

Frequency: 135.375

Phone: 970-848-3007

Other Area AWOS: K2V5 - KAKO - KHEQ - KSTK

TAF KSNY 201737Z 2018/2118 35015G25KT P6SM BKN150 FM210000 03009KT P6SM BKN080 FM210300 VRB03KT P6SM BKN100 FM210700 18012KT P6SM BKN100 FM211500 18015G22KT P6SM SCT100